createdAt,value
2022-12-13T00:01:26.703Z,-5.51
2022-12-13T00:03:55.662Z,-5.52
2022-12-13T00:06:22.465Z,-5.48
2022-12-13T00:08:49.555Z,-5.40
2022-12-13T00:11:16.707Z,-5.48
2022-12-13T00:13:44.484Z,-5.46
2022-12-13T00:16:14.028Z,-5.39
2022-12-13T00:18:41.375Z,-5.41
2022-12-13T00:21:11.749Z,-5.49
2022-12-13T00:23:39.066Z,-5.51
2022-12-13T00:26:07.745Z,-5.54
2022-12-13T00:28:34.706Z,-5.51
2022-12-13T00:31:27.018Z,-5.49
2022-12-13T00:33:50.175Z,-5.61
2022-12-13T00:36:17.085Z,-5.67
2022-12-13T00:38:44.445Z,-5.64
2022-12-13T00:41:19.439Z,-5.63
2022-12-13T00:43:46.856Z,-5.56
2022-12-13T00:46:14.968Z,-5.41
2022-12-13T00:48:45.124Z,-5.37
2022-12-13T00:51:12.309Z,-5.28
2022-12-13T00:53:39.245Z,-5.30
2022-12-13T00:56:16.257Z,-5.32
2022-12-13T00:58:48.670Z,-5.42
2022-12-13T01:01:21.797Z,-5.25
2022-12-13T01:03:48.534Z,-5.19
2022-12-13T01:06:18.963Z,-5.17
2022-12-13T01:08:46.869Z,-5.28
2022-12-13T01:11:15.056Z,-5.35
2022-12-13T01:13:42.140Z,-5.35
2022-12-13T01:16:12.550Z,-5.49
2022-12-13T01:18:39.941Z,-5.51
2022-12-13T01:21:12.295Z,-5.56
2022-12-13T01:23:39.523Z,-5.51
2022-12-13T01:26:09.556Z,-5.53
2022-12-13T01:28:36.447Z,-5.63
2022-12-13T01:31:10.314Z,-5.46
2022-12-13T01:33:38.321Z,-5.47
2022-12-13T01:36:07.876Z,-5.53
2022-12-13T01:38:37.682Z,-5.56
2022-12-13T01:41:17.103Z,-5.54
2022-12-13T01:43:48.029Z,-5.69
2022-12-13T01:46:17.834Z,-5.74
2022-12-13T01:48:49.539Z,-5.73
2022-12-13T01:51:21.121Z,-5.71
2022-12-13T01:53:50.017Z,-5.71
2022-12-13T01:56:27.556Z,-5.62
2022-12-13T01:58:55.975Z,-5.53
2022-12-13T02:01:22.985Z,-5.49
2022-12-13T02:03:50.012Z,-5.40
2022-12-13T02:06:21.326Z,-5.40
2022-12-13T02:08:48.958Z,-5.47
2022-12-13T02:11:16.295Z,-5.50
2022-12-13T02:13:43.287Z,-5.51
2022-12-13T02:16:25.912Z,-5.54
2022-12-13T02:19:15.666Z,-5.51
2022-12-13T02:22:16.910Z,-5.34
2022-12-13T02:25:22.015Z,-5.36
2022-12-13T02:28:30.237Z,-5.34
2022-12-13T02:31:03.755Z,-5.42
2022-12-13T02:33:54.765Z,-5.46
2022-12-13T02:36:39.341Z,-5.41
2022-12-13T02:39:31.439Z,-5.40
2022-12-13T02:42:05.622Z,-5.40
2022-12-13T02:44:42.486Z,-5.43
2022-12-13T02:47:22.296Z,-5.49
2022-12-13T02:49:53.994Z,-5.55
2022-12-13T02:52:25.385Z,-5.57
2022-12-13T02:54:56.986Z,-5.68
2022-12-13T02:57:38.443Z,-5.64
2022-12-13T03:00:16.612Z,-5.66
2022-12-13T03:03:05.523Z,-5.71
2022-12-13T03:06:06.889Z,-5.71
2022-12-13T03:08:55.423Z,-5.74
2022-12-13T03:11:26.312Z,-5.74
2022-12-13T03:14:05.096Z,-5.71
2022-12-13T03:16:41.588Z,-5.66
2022-12-13T03:19:10.367Z,-5.69
2022-12-13T03:21:45.555Z,-5.66
2022-12-13T03:24:19.674Z,-5.66
2022-12-13T03:26:48.817Z,-5.61
2022-12-13T03:29:24.769Z,-5.58
2022-12-13T03:31:53.372Z,-5.53
2022-12-13T03:34:22.783Z,-5.42
2022-12-13T03:36:52.409Z,-5.29
2022-12-13T03:39:19.967Z,-5.08
2022-12-13T03:41:48.393Z,-5.04
2022-12-13T03:44:15.518Z,-4.96
2022-12-13T03:46:42.914Z,-4.90
2022-12-13T03:49:16.683Z,-4.85
2022-12-13T03:51:44.194Z,-4.70
2022-12-13T03:54:10.951Z,-4.65
2022-12-13T03:56:37.467Z,-4.65
2022-12-13T03:59:04.393Z,-4.60
2022-12-13T04:01:31.214Z,-4.47
2022-12-13T04:03:58.416Z,-4.40
2022-12-13T04:06:29.868Z,-4.51
2022-12-13T04:08:59.404Z,-4.60
2022-12-13T04:11:44.522Z,-4.72
2022-12-13T04:17:52.134Z,-4.55
2022-12-13T04:20:19.122Z,-4.81
2022-12-13T04:22:46.012Z,-4.86
2022-12-13T04:25:13.409Z,-4.83
2022-12-13T04:27:40.468Z,-4.81
2022-12-13T04:30:08.579Z,-4.84
2022-12-13T04:32:35.805Z,-4.85
2022-12-13T04:35:02.408Z,-4.88
2022-12-13T04:37:30.453Z,-4.91
2022-12-13T04:40:00.775Z,-5.02
2022-12-13T04:42:28.306Z,-5.11
2022-12-13T04:44:55.164Z,-5.12
2022-12-13T04:47:22.732Z,-5.17
2022-12-13T04:49:49.603Z,-5.25
2022-12-13T04:52:22.532Z,-5.29
2022-12-13T04:54:55.992Z,-5.33
2022-12-13T04:57:23.446Z,-5.41
2022-12-13T04:59:50.768Z,-5.46
2022-12-13T05:02:23.370Z,-5.48
2022-12-13T05:04:53.941Z,-5.52
2022-12-13T05:07:22.647Z,-5.57
2022-12-13T05:09:49.742Z,-5.63
2022-12-13T05:12:22.665Z,-5.65
2022-12-13T05:14:51.513Z,-5.59
2022-12-13T05:17:18.993Z,-5.42
2022-12-13T05:19:45.812Z,-5.54
2022-12-13T05:22:19.944Z,-5.61
2022-12-13T05:24:48.641Z,-5.61
2022-12-13T05:27:25.293Z,-5.64
2022-12-13T05:30:02.993Z,-5.70
2022-12-13T05:32:43.692Z,-5.77
2022-12-13T05:35:22.011Z,-5.67
2022-12-13T05:37:55.101Z,-5.59
2022-12-13T05:40:27.466Z,-5.68
2022-12-13T05:43:00.775Z,-5.62
2022-12-13T05:45:29.978Z,-5.51
2022-12-13T05:47:56.581Z,-5.71
2022-12-13T05:50:23.782Z,-5.73
2022-12-13T05:52:51.462Z,-5.75
2022-12-13T05:55:19.010Z,-5.71
2022-12-13T05:57:50.814Z,-5.83
2022-12-13T06:00:29.791Z,-5.92
2022-12-13T06:03:00.618Z,-5.95
2022-12-13T06:05:30.226Z,-5.80
2022-12-13T06:07:58.592Z,-5.93
2022-12-13T06:10:34.741Z,-6.03
2022-12-13T06:13:21.049Z,-6.06
2022-12-13T06:15:49.794Z,-6.05
2022-12-13T06:18:17.086Z,-6.02
2022-12-13T06:20:44.050Z,-6.08
2022-12-13T06:23:11.036Z,-6.06
2022-12-13T06:25:37.607Z,-6.07
2022-12-13T06:28:05.258Z,-6.16
2022-12-13T06:30:32.066Z,-6.12
2022-12-13T06:32:59.002Z,-6.11
2022-12-13T06:35:28.314Z,-6.11
2022-12-13T06:37:56.163Z,-6.15
2022-12-13T06:40:32.569Z,-6.21
2022-12-13T06:42:59.557Z,-6.20
2022-12-13T06:45:26.685Z,-6.30
2022-12-13T06:47:53.509Z,-6.42
2022-12-13T06:50:20.351Z,-6.38
2022-12-13T06:52:48.906Z,-6.37
2022-12-13T06:55:23.937Z,-6.40
2022-12-13T06:57:51.740Z,-6.55
2022-12-13T07:00:22.543Z,-6.63
2022-12-13T07:02:54.844Z,-6.64
2022-12-13T07:05:21.930Z,-6.59
2022-12-13T07:07:48.728Z,-6.45
2022-12-13T07:10:22.676Z,-6.40
2022-12-13T07:12:50.529Z,-6.37
2022-12-13T07:15:17.174Z,-6.30
2022-12-13T07:17:43.759Z,-6.44
2022-12-13T07:20:13.453Z,-6.32
2022-12-13T07:22:47.325Z,-6.30
2022-12-13T07:25:27.801Z,-6.32
2022-12-13T07:28:02.720Z,-6.26
2022-12-13T07:30:40.957Z,-6.31
2022-12-13T07:33:09.271Z,-6.26
2022-12-13T07:35:37.397Z,-6.33
2022-12-13T07:38:08.205Z,-6.31
2022-12-13T07:40:38.964Z,-6.32
2022-12-13T07:43:07.602Z,-6.34
2022-12-13T07:45:34.413Z,-6.40
2022-12-13T07:48:05.250Z,-6.36
2022-12-13T07:50:36.817Z,-6.26
2022-12-13T07:53:08.118Z,-6.29
2022-12-13T07:55:36.461Z,-6.28
2022-12-13T07:58:15.858Z,-6.31
2022-12-13T08:00:46.048Z,-6.22
2022-12-13T08:03:24.217Z,-6.28
2022-12-13T08:06:10.692Z,-6.34
2022-12-13T08:08:39.443Z,-6.33
2022-12-13T08:11:15.390Z,-6.39
2022-12-13T08:13:42.247Z,-6.25
2022-12-13T08:16:28.114Z,-6.37
2022-12-13T08:19:01.980Z,-6.24
2022-12-13T08:24:27.727Z,-6.14
2022-12-13T08:27:00.813Z,-6.16
2022-12-13T08:29:34.088Z,-6.11
2022-12-13T08:32:03.337Z,-6.06
2022-12-13T08:34:31.597Z,-5.98
2022-12-13T08:37:02.857Z,-5.91
2022-12-13T08:39:36.722Z,-5.90
2022-12-13T08:42:14.810Z,-5.91
2022-12-13T08:44:49.174Z,-5.78
2022-12-13T08:47:24.578Z,-5.73
2022-12-13T08:50:01.463Z,-5.69
2022-12-13T08:52:29.511Z,-5.65
2022-12-13T08:54:56.048Z,-5.52
2022-12-13T08:57:22.641Z,-5.44
2022-12-13T08:59:49.345Z,-5.45
2022-12-13T09:02:16.692Z,-5.43
2022-12-13T09:04:43.864Z,-5.39
2022-12-13T09:07:11.399Z,-5.27
2022-12-13T09:09:38.207Z,-5.20
2022-12-13T09:12:10.830Z,-5.16
2022-12-13T09:14:45.777Z,-5.06
2022-12-13T09:17:24.999Z,-5.12
2022-12-13T09:19:57.885Z,-5.07
2022-12-13T09:22:33.200Z,-4.92
2022-12-13T09:25:02.720Z,-4.96
2022-12-13T09:27:30.983Z,-4.92
2022-12-13T09:30:12.048Z,-4.88
2022-12-13T09:32:43.553Z,-4.85
2022-12-13T09:35:10.983Z,-4.76
2022-12-13T09:37:44.097Z,-4.68
2022-12-13T09:40:29.445Z,-4.65
2022-12-13T09:43:12.351Z,-4.62
2022-12-13T09:45:50.423Z,-4.36
2022-12-13T09:48:22.768Z,-4.31
2022-12-13T09:50:58.439Z,-4.17
2022-12-13T09:53:40.416Z,-4.17
2022-12-13T09:56:12.319Z,-3.99
2022-12-13T09:58:38.983Z,-3.94
2022-12-13T10:01:06.347Z,-3.93
2022-12-13T10:03:33.239Z,-3.82
2022-12-13T10:06:13.567Z,-3.77
2022-12-13T10:08:48.886Z,-3.65
2022-12-13T10:11:17.722Z,-3.68
2022-12-13T10:13:54.156Z,-3.64
2022-12-13T10:16:36.389Z,-3.54
2022-12-13T10:19:28.287Z,-3.47
2022-12-13T10:22:02.063Z,-3.50
2022-12-13T10:25:00.020Z,-3.56
2022-12-13T10:27:37.462Z,-3.34
2022-12-13T10:30:23.146Z,-3.17
2022-12-13T10:33:00.549Z,-3.22
2022-12-13T10:35:34.306Z,-3.16
2022-12-13T10:38:22.407Z,-2.96
2022-12-13T10:40:58.821Z,-2.41
2022-12-13T10:43:30.528Z,-2.42
2022-12-13T10:46:01.101Z,-2.28
2022-12-13T10:48:49.358Z,-2.49
2022-12-13T10:51:21.779Z,-2.53
2022-12-13T10:53:52.230Z,-2.57
2022-12-13T10:56:23.006Z,-2.54
2022-12-13T10:59:13.261Z,-2.32
2022-12-13T11:01:44.295Z,-2.58
2022-12-13T11:04:27.175Z,-2.12
2022-12-13T11:06:55.960Z,-1.44
2022-12-13T11:09:39.042Z,-1.28
2022-12-13T11:12:16.371Z,-1.02
2022-12-13T11:14:53.310Z,-0.71
2022-12-13T11:17:26.556Z,-1.05
2022-12-13T11:19:57.851Z,-1.38
2022-12-13T11:22:28.331Z,-1.78
2022-12-13T11:25:06.126Z,-1.82
2022-12-13T11:27:48.430Z,-1.80
2022-12-13T11:30:33.409Z,-1.55
2022-12-13T11:33:14.865Z,-1.28
2022-12-13T11:35:57.782Z,-0.80
2022-12-13T11:38:57.626Z,-1.14
2022-12-13T11:41:37.168Z,-0.56
2022-12-13T11:44:09.797Z,-0.06
2022-12-13T11:46:54.101Z,-0.17
2022-12-13T11:49:40.091Z,0.05
2022-12-13T11:52:28.834Z,-0.44
2022-12-13T11:55:16.662Z,-0.69
2022-12-13T11:57:50.015Z,-0.40
2022-12-13T12:00:34.462Z,0.72
2022-12-13T12:03:18.324Z,0.58
2022-12-13T12:05:57.450Z,0.77
2022-12-13T12:08:45.448Z,0.54
2022-12-13T12:11:15.754Z,0.65
2022-12-13T12:13:50.985Z,0.68
2022-12-13T12:16:41.119Z,1.09
2022-12-13T12:19:14.600Z,1.51
2022-12-13T12:22:14.829Z,1.55
2022-12-13T12:25:04.673Z,1.24
2022-12-13T12:27:36.821Z,1.67
2022-12-13T12:30:23.086Z,1.18
2022-12-13T12:33:23.279Z,0.70
2022-12-13T12:35:55.455Z,0.99
2022-12-13T12:38:46.753Z,0.41
2022-12-13T12:41:37.299Z,0.57
2022-12-13T12:44:37.287Z,0.00
2022-12-13T12:47:38.198Z,-0.17
2022-12-13T12:50:34.007Z,-0.28
2022-12-13T12:53:07.558Z,-0.29
2022-12-13T12:56:13.295Z,-0.48
2022-12-13T12:58:54.359Z,-0.40
2022-12-13T13:01:44.185Z,-0.48
2022-12-13T13:04:22.265Z,-0.59
2022-12-13T13:07:01.565Z,-0.70
2022-12-13T13:09:31.039Z,-0.87
2022-12-13T13:12:02.550Z,-1.01
2022-12-13T13:14:49.447Z,-0.94
2022-12-13T13:17:16.334Z,-1.21
2022-12-13T13:20:15.139Z,-1.28
2022-12-13T13:22:42.850Z,-1.17
2022-12-13T13:25:11.346Z,-1.13
2022-12-13T13:27:42.963Z,-1.18
2022-12-13T13:30:24.766Z,-1.33
2022-12-13T13:32:54.469Z,-1.15
2022-12-13T13:35:33.506Z,-1.24
2022-12-13T13:38:06.475Z,-1.10
2022-12-13T13:40:38.662Z,-1.16
2022-12-13T13:43:05.141Z,-1.15
2022-12-13T13:45:58.876Z,-1.17
2022-12-13T13:48:47.115Z,-1.12
2022-12-13T13:52:24.022Z,-0.90
2022-12-13T13:55:01.436Z,-0.87
2022-12-13T14:01:00.535Z,-1.06
2022-12-13T14:03:46.155Z,-0.94
2022-12-13T14:06:38.014Z,-0.97
2022-12-13T14:09:41.980Z,-0.92
2022-12-13T14:12:38.635Z,-1.03
2022-12-13T14:15:49.247Z,-0.89
2022-12-13T14:18:47.231Z,-1.07
2022-12-13T14:21:41.189Z,-1.14
2022-12-13T14:24:23.667Z,-1.22
2022-12-13T14:27:38.165Z,-1.16
2022-12-13T14:30:09.653Z,-1.34
2022-12-13T14:32:54.123Z,-1.39
2022-12-13T14:35:27.944Z,-1.30
2022-12-13T14:38:06.744Z,-1.29
2022-12-13T14:40:49.885Z,-1.33
2022-12-13T14:43:24.339Z,-1.39
2022-12-13T14:45:57.442Z,-1.37
2022-12-13T14:48:28.020Z,-1.58
2022-12-13T14:50:55.611Z,-1.55
2022-12-13T14:53:42.640Z,-1.57
2022-12-13T14:56:27.679Z,-1.80
2022-12-13T14:59:11.761Z,-1.92
2022-12-13T15:01:39.300Z,-1.68
2022-12-13T15:04:25.494Z,-1.75
2022-12-13T15:06:59.552Z,-1.93
2022-12-13T15:09:28.849Z,-2.06
2022-12-13T15:12:04.336Z,-2.12
2022-12-13T15:14:48.256Z,-2.15
2022-12-13T15:17:37.715Z,-2.04
2022-12-13T15:20:24.872Z,-2.22
2022-12-13T15:23:10.892Z,-2.29
2022-12-13T15:25:38.191Z,-2.30
2022-12-13T15:28:05.927Z,-2.37
2022-12-13T15:30:35.096Z,-2.45
2022-12-13T15:33:30.861Z,-2.44
2022-12-13T15:36:06.448Z,-2.52
2022-12-13T15:38:34.421Z,-2.61
2022-12-13T15:41:02.900Z,-2.70
2022-12-13T15:43:37.195Z,-2.77
2022-12-13T15:46:07.407Z,-2.77
2022-12-13T15:48:41.966Z,-2.68
2022-12-13T15:51:29.804Z,-2.80
2022-12-13T15:54:21.620Z,-2.85
2022-12-13T15:57:02.667Z,-2.89
2022-12-13T15:59:33.281Z,-2.75
2022-12-13T16:02:02.298Z,-2.79
2022-12-13T16:04:32.885Z,-2.86
2022-12-13T16:07:01.117Z,-2.98
2022-12-13T16:09:34.536Z,-2.87
2022-12-13T16:12:04.823Z,-2.95
2022-12-13T16:14:32.016Z,-2.83
2022-12-13T16:17:08.523Z,-2.89
2022-12-13T16:19:35.738Z,-3.05
2022-12-13T16:22:02.630Z,-3.00
2022-12-13T16:24:36.466Z,-2.99
2022-12-13T16:27:08.030Z,-3.04
2022-12-13T16:29:36.026Z,-3.07
2022-12-13T16:32:08.090Z,-3.15
2022-12-13T16:34:37.348Z,-3.07
2022-12-13T16:37:25.257Z,-2.92
2022-12-13T16:39:51.612Z,-2.87
2022-12-13T16:42:19.262Z,-2.83
2022-12-13T16:44:47.155Z,-2.87
2022-12-13T16:47:22.167Z,-2.84
2022-12-13T16:49:55.102Z,-2.84
2022-12-13T16:52:22.882Z,-2.92
2022-12-13T16:54:51.147Z,-2.89
2022-12-13T16:57:18.070Z,-2.78
2022-12-13T16:59:45.115Z,-2.95
2022-12-13T17:02:17.659Z,-3.09
2022-12-13T17:04:44.809Z,-3.05
2022-12-13T17:07:11.303Z,-3.06
2022-12-13T17:09:38.603Z,-3.16
2022-12-13T17:12:05.930Z,-3.21
2022-12-13T17:14:32.625Z,-3.20
2022-12-13T17:17:00.081Z,-3.25
2022-12-13T17:19:27.216Z,-3.12
2022-12-13T17:21:55.102Z,-3.00
2022-12-13T17:24:21.778Z,-3.21
2022-12-13T17:26:53.927Z,-3.30
2022-12-13T17:29:25.661Z,-3.33
2022-12-13T17:31:55.468Z,-3.49
2022-12-13T17:34:23.007Z,-3.47
2022-12-13T17:36:50.025Z,-3.41
2022-12-13T17:39:17.118Z,-3.45
2022-12-13T17:41:43.866Z,-3.45
2022-12-13T17:44:21.980Z,-3.38
2022-12-13T17:46:54.894Z,-3.44
2022-12-13T17:49:22.931Z,-3.32
2022-12-13T17:51:52.637Z,-3.24
2022-12-13T17:54:20.347Z,-3.19
2022-12-13T17:56:47.355Z,-3.30
2022-12-13T17:59:15.954Z,-3.25
2022-12-13T18:01:43.679Z,-3.19
2022-12-13T18:04:12.555Z,-3.20
2022-12-13T18:06:40.120Z,-2.61
2022-12-13T18:09:08.800Z,-2.80
2022-12-13T18:11:36.164Z,-2.98
2022-12-13T18:14:04.747Z,-3.09
2022-12-13T18:16:38.506Z,-3.16
2022-12-13T18:19:08.119Z,-3.04
2022-12-13T18:21:36.621Z,-3.04
2022-12-13T18:24:05.889Z,-3.12
2022-12-13T18:26:34.321Z,-2.93
2022-12-13T18:29:03.002Z,-3.03
2022-12-13T18:31:29.723Z,-3.06
2022-12-13T18:33:56.955Z,-3.06
2022-12-13T18:36:25.074Z,-3.12
2022-12-13T18:38:51.944Z,-2.88
2022-12-13T18:41:22.111Z,-2.92
2022-12-13T18:44:03.703Z,-2.88
2022-12-13T18:46:32.967Z,-2.84
2022-12-13T18:49:00.122Z,-2.81
2022-12-13T18:51:27.692Z,-2.95
2022-12-13T18:53:55.982Z,-2.87
2022-12-13T18:56:23.741Z,-2.82
2022-12-13T18:58:51.102Z,-3.08
2022-12-13T19:01:19.532Z,-3.21
2022-12-13T19:03:47.758Z,-3.19
2022-12-13T19:06:25.340Z,-3.12
2022-12-13T19:08:55.044Z,-3.02
2022-12-13T19:11:22.967Z,-3.17
2022-12-13T19:13:51.320Z,-3.14
2022-12-13T19:16:21.583Z,-2.89
2022-12-13T19:18:48.911Z,-3.11
2022-12-13T19:21:18.632Z,-3.06
2022-12-13T19:23:48.435Z,-3.08
2022-12-13T19:26:21.348Z,-2.95
2022-12-13T19:28:47.749Z,-2.94
2022-12-13T19:31:15.474Z,-2.98
2022-12-13T19:33:43.181Z,-2.88
2022-12-13T19:36:10.625Z,-2.93
2022-12-13T19:38:37.944Z,-3.00
2022-12-13T19:41:10.808Z,-3.07
2022-12-13T19:43:37.677Z,-2.84
2022-12-13T19:46:04.699Z,-2.86
2022-12-13T19:48:32.333Z,-2.97
2022-12-13T19:51:01.688Z,-2.93
2022-12-13T19:53:29.997Z,-2.97
2022-12-13T19:55:57.917Z,-2.94
2022-12-13T19:58:25.932Z,-3.00
2022-12-13T20:00:53.488Z,-3.15
2022-12-13T20:03:20.320Z,-3.00
2022-12-13T20:05:57.138Z,-3.03
2022-12-13T20:08:23.662Z,-2.90
2022-12-13T20:11:00.722Z,-2.95
2022-12-13T20:13:28.540Z,-2.92
2022-12-13T20:15:58.672Z,-2.98
2022-12-13T20:18:25.796Z,-2.94
2022-12-13T20:21:11.765Z,-2.95
2022-12-13T20:23:39.442Z,-2.99
2022-12-13T20:26:09.078Z,-3.20
2022-12-13T20:28:35.785Z,-3.11
2022-12-13T20:31:14.188Z,-3.05
2022-12-13T20:33:42.694Z,-2.99
2022-12-13T20:36:24.330Z,-3.04
2022-12-13T20:38:53.111Z,-3.07
2022-12-13T20:41:19.680Z,-3.00
2022-12-13T20:43:48.470Z,-3.00
2022-12-13T20:46:15.455Z,-3.26
2022-12-13T20:48:45.712Z,-3.24
2022-12-13T20:51:15.943Z,-3.02
2022-12-13T20:53:45.775Z,-3.19
2022-12-13T20:56:14.970Z,-3.18
2022-12-13T20:58:42.523Z,-3.21
2022-12-13T21:01:13.274Z,-3.27
2022-12-13T21:03:39.801Z,-3.31
2022-12-13T21:06:06.430Z,-3.39
2022-12-13T21:08:51.703Z,-3.35
2022-12-13T21:11:36.086Z,-3.29
2022-12-13T21:14:18.858Z,-3.45
2022-12-13T21:16:51.327Z,-3.36
2022-12-13T21:19:23.482Z,-3.43
2022-12-13T21:21:50.757Z,-3.46
2022-12-13T21:24:20.256Z,-3.49
2022-12-13T21:26:47.428Z,-3.32
2022-12-13T21:29:16.206Z,-3.39
2022-12-13T21:31:48.768Z,-3.38
2022-12-13T21:34:16.884Z,-3.55
2022-12-13T21:36:45.515Z,-3.48
2022-12-13T21:39:14.021Z,-3.27
2022-12-13T21:41:41.568Z,-3.34
2022-12-13T21:44:14.045Z,-3.49
2022-12-13T21:49:32.443Z,-3.43
2022-12-13T21:52:01.851Z,-3.40
2022-12-13T21:54:48.484Z,-3.48
2022-12-13T21:57:35.261Z,-3.50
2022-12-13T22:00:04.661Z,-3.53
2022-12-13T22:02:35.145Z,-3.52
2022-12-13T22:05:03.200Z,-3.35
2022-12-13T22:07:33.638Z,-3.24
2022-12-13T22:10:02.057Z,-3.26
2022-12-13T22:12:37.896Z,-3.24
2022-12-13T22:15:15.369Z,-3.27
2022-12-13T22:17:43.273Z,-3.23
2022-12-13T22:20:13.548Z,-3.26
2022-12-13T22:22:42.094Z,-3.37
2022-12-13T22:25:09.465Z,-3.22
2022-12-13T22:27:36.108Z,-3.29
2022-12-13T22:30:03.518Z,-3.35
2022-12-13T22:32:31.214Z,-3.37
2022-12-13T22:34:58.199Z,-3.44
2022-12-13T22:37:25.368Z,-3.27
2022-12-13T22:39:52.178Z,-3.29
2022-12-13T22:42:19.175Z,-3.28
2022-12-13T22:44:45.598Z,-3.36
2022-12-13T22:47:12.398Z,-3.39
2022-12-13T22:49:39.908Z,-3.32
2022-12-13T22:52:06.901Z,-3.25
2022-12-13T22:54:35.749Z,-3.32
2022-12-13T22:57:02.727Z,-3.25
2022-12-13T22:59:29.628Z,-3.07
2022-12-13T23:02:02.082Z,-3.01
2022-12-13T23:04:30.147Z,-3.07
2022-12-13T23:06:57.956Z,-3.07
2022-12-13T23:09:24.761Z,-3.10
2022-12-13T23:12:09.843Z,-3.12
2022-12-13T23:14:36.372Z,-3.08
2022-12-13T23:17:04.569Z,-3.11
2022-12-13T23:19:41.583Z,-2.90
2022-12-13T23:22:22.638Z,-3.05
2022-12-13T23:24:50.207Z,-3.04
2022-12-13T23:27:19.545Z,-3.03
2022-12-13T23:29:46.488Z,-2.93
2022-12-13T23:32:13.244Z,-3.00
2022-12-13T23:34:39.658Z,-2.99
2022-12-13T23:37:06.483Z,-3.01
2022-12-13T23:39:33.112Z,-3.07
2022-12-13T23:42:00.615Z,-3.19
2022-12-13T23:44:27.501Z,-3.11
2022-12-13T23:46:55.260Z,-3.22
2022-12-13T23:49:21.681Z,-3.32
2022-12-13T23:51:48.381Z,-3.36
2022-12-13T23:54:19.135Z,-3.23
2022-12-13T23:56:46.697Z,-3.25
2022-12-13T23:59:13.428Z,-3.32
